sensor_id;sensor_type;location;lat;lon;timestamp;temperature;humidity
42907;DHT22;28552;51.146;6.576;2022-09-27T00:00:17;10.30;99.90
42907;DHT22;28552;51.146;6.576;2022-09-27T00:03:18;10.30;99.90
42907;DHT22;28552;51.146;6.576;2022-09-27T00:06:25;10.30;99.90
42907;DHT22;28552;51.146;6.576;2022-09-27T00:09:26;10.30;99.90
42907;DHT22;28552;51.146;6.576;2022-09-27T00:12:27;10.20;99.90
42907;DHT22;28552;51.146;6.576;2022-09-27T00:15:28;10.20;99.90
42907;DHT22;28552;51.146;6.576;2022-09-27T00:18:28;10.20;99.90
42907;DHT22;28552;51.146;6.576;2022-09-27T00:21:29;10.20;99.90
42907;DHT22;28552;51.146;6.576;2022-09-27T00:24:31;10.20;99.90
42907;DHT22;28552;51.146;6.576;2022-09-27T00:27:32;10.30;99.90
42907;DHT22;28552;51.146;6.576;2022-09-27T00:30:33;10.20;99.90
42907;DHT22;28552;51.146;6.576;2022-09-27T00:33:33;10.20;99.90
42907;DHT22;28552;51.146;6.576;2022-09-27T00:36:34;10.20;99.90
42907;DHT22;28552;51.146;6.576;2022-09-27T00:39:34;10.20;99.90
42907;DHT22;28552;51.146;6.576;2022-09-27T00:42:35;10.20;99.90
42907;DHT22;28552;51.146;6.576;2022-09-27T00:45:35;10.20;99.90
42907;DHT22;28552;51.146;6.576;2022-09-27T00:48:36;10.20;99.90
42907;DHT22;28552;51.146;6.576;2022-09-27T00:51:38;10.20;99.90
42907;DHT22;28552;51.146;6.576;2022-09-27T00:54:42;10.20;99.90
42907;DHT22;28552;51.146;6.576;2022-09-27T00:57:45;10.10;99.90
42907;DHT22;28552;51.146;6.576;2022-09-27T01:00:50;10.10;99.90
42907;DHT22;28552;51.146;6.576;2022-09-27T01:07:12;10.10;99.90
42907;DHT22;28552;51.146;6.576;2022-09-27T01:10:14;10.10;99.90
42907;DHT22;28552;51.146;6.576;2022-09-27T01:13:24;10.10;99.90
42907;DHT22;28552;51.146;6.576;2022-09-27T01:16:56;10.10;99.90
42907;DHT22;28552;51.146;6.576;2022-09-27T01:23:19;10.10;99.90
42907;DHT22;28552;51.146;6.576;2022-09-27T01:26:55;10.10;99.90
42907;DHT22;28552;51.146;6.576;2022-09-27T01:30:13;10.10;99.90
42907;DHT22;28552;51.146;6.576;2022-09-27T01:43:15;10.10;99.90
42907;DHT22;28552;51.146;6.576;2022-09-27T01:46:22;10.10;99.90
42907;DHT22;28552;51.146;6.576;2022-09-27T01:49:31;10.10;99.90
42907;DHT22;28552;51.146;6.576;2022-09-27T01:52:50;10.10;99.90
42907;DHT22;28552;51.146;6.576;2022-09-27T01:55:54;10.10;99.90
42907;DHT22;28552;51.146;6.576;2022-09-27T02:02:15;10.00;99.90
42907;DHT22;28552;51.146;6.576;2022-09-27T02:05:18;10.00;99.90
42907;DHT22;28552;51.146;6.576;2022-09-27T02:11:26;10.10;99.90
42907;DHT22;28552;51.146;6.576;2022-09-27T02:14:35;10.10;99.90
42907;DHT22;28552;51.146;6.576;2022-09-27T02:17:58;10.10;99.90
42907;DHT22;28552;51.146;6.576;2022-09-27T02:21:01;10.00;99.90
42907;DHT22;28552;51.146;6.576;2022-09-27T02:24:04;10.00;99.90
42907;DHT22;28552;51.146;6.576;2022-09-27T02:27:21;10.00;99.90
42907;DHT22;28552;51.146;6.576;2022-09-27T02:30:23;10.00;99.90
42907;DHT22;28552;51.146;6.576;2022-09-27T02:33:30;10.00;99.90
42907;DHT22;28552;51.146;6.576;2022-09-27T02:36:33;10.00;99.90
42907;DHT22;28552;51.146;6.576;2022-09-27T02:39:34;10.00;99.90
42907;DHT22;28552;51.146;6.576;2022-09-27T02:42:35;10.00;99.90
42907;DHT22;28552;51.146;6.576;2022-09-27T02:52:48;9.80;99.90
42907;DHT22;28552;51.146;6.576;2022-09-27T02:56:06;9.80;99.90
42907;DHT22;28552;51.146;6.576;2022-09-27T03:05:53;9.60;99.90
42907;DHT22;28552;51.146;6.576;2022-09-27T03:08:57;9.60;99.90
42907;DHT22;28552;51.146;6.576;2022-09-27T03:11:57;9.50;99.90
42907;DHT22;28552;51.146;6.576;2022-09-27T03:14:58;9.50;99.90
42907;DHT22;28552;51.146;6.576;2022-09-27T03:17:59;9.40;99.90
42907;DHT22;28552;51.146;6.576;2022-09-27T03:21:00;9.40;99.90
42907;DHT22;28552;51.146;6.576;2022-09-27T03:24:01;9.40;99.90
42907;DHT22;28552;51.146;6.576;2022-09-27T03:27:02;9.40;99.90
42907;DHT22;28552;51.146;6.576;2022-09-27T03:30:04;9.30;99.90
42907;DHT22;28552;51.146;6.576;2022-09-27T03:33:06;9.30;99.90
42907;DHT22;28552;51.146;6.576;2022-09-27T03:36:08;9.30;99.90
42907;DHT22;28552;51.146;6.576;2022-09-27T03:39:09;9.30;99.90
42907;DHT22;28552;51.146;6.576;2022-09-27T03:42:09;9.20;99.90
42907;DHT22;28552;51.146;6.576;2022-09-27T03:45:10;9.20;99.90
42907;DHT22;28552;51.146;6.576;2022-09-27T03:48:11;9.30;99.90
42907;DHT22;28552;51.146;6.576;2022-09-27T03:51:11;9.20;99.90
42907;DHT22;28552;51.146;6.576;2022-09-27T03:54:12;9.20;99.90
42907;DHT22;28552;51.146;6.576;2022-09-27T03:57:13;9.20;99.90
42907;DHT22;28552;51.146;6.576;2022-09-27T04:00:14;9.20;99.90
42907;DHT22;28552;51.146;6.576;2022-09-27T04:03:14;9.20;99.90
42907;DHT22;28552;51.146;6.576;2022-09-27T04:06:19;9.20;99.90
42907;DHT22;28552;51.146;6.576;2022-09-27T04:09:19;9.10;99.90
42907;DHT22;28552;51.146;6.576;2022-09-27T04:12:20;9.10;99.90
42907;DHT22;28552;51.146;6.576;2022-09-27T04:15:20;9.10;99.90
42907;DHT22;28552;51.146;6.576;2022-09-27T04:18:21;9.10;99.90
42907;DHT22;28552;51.146;6.576;2022-09-27T04:21:22;9.10;99.90
42907;DHT22;28552;51.146;6.576;2022-09-27T04:24:22;9.10;99.90
42907;DHT22;28552;51.146;6.576;2022-09-27T04:27:24;9.10;99.90
42907;DHT22;28552;51.146;6.576;2022-09-27T04:30:25;9.10;99.90
42907;DHT22;28552;51.146;6.576;2022-09-27T04:33:25;9.10;99.90
42907;DHT22;28552;51.146;6.576;2022-09-27T04:36:26;9.10;99.90
42907;DHT22;28552;51.146;6.576;2022-09-27T04:39:27;9.10;99.90
42907;DHT22;28552;51.146;6.576;2022-09-27T04:42:28;9.00;99.90
42907;DHT22;28552;51.146;6.576;2022-09-27T04:45:29;9.00;99.90
42907;DHT22;28552;51.146;6.576;2022-09-27T04:48:30;9.00;99.90
42907;DHT22;28552;51.146;6.576;2022-09-27T04:51:30;9.00;99.90
42907;DHT22;28552;51.146;6.576;2022-09-27T04:54:31;9.00;99.90
42907;DHT22;28552;51.146;6.576;2022-09-27T04:57:32;9.00;99.90
42907;DHT22;28552;51.146;6.576;2022-09-27T05:00:32;9.00;99.90
42907;DHT22;28552;51.146;6.576;2022-09-27T05:03:33;9.00;99.90
42907;DHT22;28552;51.146;6.576;2022-09-27T05:06:34;9.00;99.90
42907;DHT22;28552;51.146;6.576;2022-09-27T05:09:34;8.90;99.90
42907;DHT22;28552;51.146;6.576;2022-09-27T05:12:35;8.90;99.90
42907;DHT22;28552;51.146;6.576;2022-09-27T05:15:36;8.90;99.90
42907;DHT22;28552;51.146;6.576;2022-09-27T05:18:41;8.90;99.90
42907;DHT22;28552;51.146;6.576;2022-09-27T05:21:42;8.90;99.90
42907;DHT22;28552;51.146;6.576;2022-09-27T05:24:44;8.80;99.90
42907;DHT22;28552;51.146;6.576;2022-09-27T05:27:45;8.90;99.90
42907;DHT22;28552;51.146;6.576;2022-09-27T05:30:47;8.90;99.90
42907;DHT22;28552;51.146;6.576;2022-09-27T05:33:48;8.90;99.90
42907;DHT22;28552;51.146;6.576;2022-09-27T05:36:48;8.90;99.90
42907;DHT22;28552;51.146;6.576;2022-09-27T05:39:49;8.90;99.90
42907;DHT22;28552;51.146;6.576;2022-09-27T05:42:51;9.00;99.90
42907;DHT22;28552;51.146;6.576;2022-09-27T05:45:52;9.00;99.90
42907;DHT22;28552;51.146;6.576;2022-09-27T05:48:58;9.00;99.90
42907;DHT22;28552;51.146;6.576;2022-09-27T05:58:48;9.00;99.90
42907;DHT22;28552;51.146;6.576;2022-09-27T06:05:07;9.00;99.90
42907;DHT22;28552;51.146;6.576;2022-09-27T06:08:10;9.10;99.90
42907;DHT22;28552;51.146;6.576;2022-09-27T06:11:12;9.10;99.90
42907;DHT22;28552;51.146;6.576;2022-09-27T06:14:15;9.10;99.90
42907;DHT22;28552;51.146;6.576;2022-09-27T06:17:20;9.10;99.90
42907;DHT22;28552;51.146;6.576;2022-09-27T06:20:21;9.10;99.90
42907;DHT22;28552;51.146;6.576;2022-09-27T06:23:23;9.10;99.90
42907;DHT22;28552;51.146;6.576;2022-09-27T06:26:27;9.10;99.90
42907;DHT22;28552;51.146;6.576;2022-09-27T06:29:29;9.10;99.90
42907;DHT22;28552;51.146;6.576;2022-09-27T06:32:55;9.20;99.90
42907;DHT22;28552;51.146;6.576;2022-09-27T06:36:03;9.20;99.90
42907;DHT22;28552;51.146;6.576;2022-09-27T06:39:31;9.20;99.90
42907;DHT22;28552;51.146;6.576;2022-09-27T06:42:53;9.20;99.90
42907;DHT22;28552;51.146;6.576;2022-09-27T06:46:06;9.20;99.90
42907;DHT22;28552;51.146;6.576;2022-09-27T06:49:16;9.20;99.90
42907;DHT22;28552;51.146;6.576;2022-09-27T06:52:52;9.20;99.90
42907;DHT22;28552;51.146;6.576;2022-09-27T06:56:01;9.20;99.90
42907;DHT22;28552;51.146;6.576;2022-09-27T06:59:03;9.20;99.90
42907;DHT22;28552;51.146;6.576;2022-09-27T07:02:19;9.20;99.90
42907;DHT22;28552;51.146;6.576;2022-09-27T07:05:20;9.20;99.90
42907;DHT22;28552;51.146;6.576;2022-09-27T07:08:21;9.20;99.90
42907;DHT22;28552;51.146;6.576;2022-09-27T07:11:22;9.20;99.90
42907;DHT22;28552;51.146;6.576;2022-09-27T07:14:22;9.20;99.90
42907;DHT22;28552;51.146;6.576;2022-09-27T07:17:23;9.20;99.90
42907;DHT22;28552;51.146;6.576;2022-09-27T07:20:25;9.20;99.90
42907;DHT22;28552;51.146;6.576;2022-09-27T07:23:26;9.20;99.90
42907;DHT22;28552;51.146;6.576;2022-09-27T07:26:27;9.20;99.90
42907;DHT22;28552;51.146;6.576;2022-09-27T07:29:28;9.10;99.90
42907;DHT22;28552;51.146;6.576;2022-09-27T07:32:32;9.10;99.90
42907;DHT22;28552;51.146;6.576;2022-09-27T07:35:37;9.10;99.90
42907;DHT22;28552;51.146;6.576;2022-09-27T07:38:40;9.10;99.90
42907;DHT22;28552;51.146;6.576;2022-09-27T07:41:42;9.20;99.90
42907;DHT22;28552;51.146;6.576;2022-09-27T07:44:43;9.20;99.90
42907;DHT22;28552;51.146;6.576;2022-09-27T07:47:44;9.30;99.90
42907;DHT22;28552;51.146;6.576;2022-09-27T07:50:45;9.30;99.90
42907;DHT22;28552;51.146;6.576;2022-09-27T07:53:47;9.40;99.90
42907;DHT22;28552;51.146;6.576;2022-09-27T07:56:49;9.50;99.90
42907;DHT22;28552;51.146;6.576;2022-09-27T07:59:49;9.50;99.90
42907;DHT22;28552;51.146;6.576;2022-09-27T08:02:50;9.50;99.90
42907;DHT22;28552;51.146;6.576;2022-09-27T08:05:50;9.60;99.90
42907;DHT22;28552;51.146;6.576;2022-09-27T08:08:51;9.60;99.90
42907;DHT22;28552;51.146;6.576;2022-09-27T08:11:51;9.70;99.90
42907;DHT22;28552;51.146;6.576;2022-09-27T08:14:57;9.70;99.90
42907;DHT22;28552;51.146;6.576;2022-09-27T08:18:00;9.80;99.90
42907;DHT22;28552;51.146;6.576;2022-09-27T08:21:01;9.80;99.90
42907;DHT22;28552;51.146;6.576;2022-09-27T08:24:02;9.90;99.90
42907;DHT22;28552;51.146;6.576;2022-09-27T08:27:03;9.90;99.90
42907;DHT22;28552;51.146;6.576;2022-09-27T08:30:05;9.90;99.90
42907;DHT22;28552;51.146;6.576;2022-09-27T08:33:06;10.00;99.90
42907;DHT22;28552;51.146;6.576;2022-09-27T08:36:11;10.10;99.90
42907;DHT22;28552;51.146;6.576;2022-09-27T08:39:12;10.10;99.90
42907;DHT22;28552;51.146;6.576;2022-09-27T08:42:39;10.20;99.90
42907;DHT22;28552;51.146;6.576;2022-09-27T08:46:02;10.30;99.90
42907;DHT22;28552;51.146;6.576;2022-09-27T08:49:23;10.50;99.90
42907;DHT22;28552;51.146;6.576;2022-09-27T08:52:30;10.50;99.90
42907;DHT22;28552;51.146;6.576;2022-09-27T08:55:39;10.50;99.90
42907;DHT22;28552;51.146;6.576;2022-09-27T08:58:51;10.50;99.90
42907;DHT22;28552;51.146;6.576;2022-09-27T09:01:55;10.60;99.90
42907;DHT22;28552;51.146;6.576;2022-09-27T09:05:00;10.50;99.90
42907;DHT22;28552;51.146;6.576;2022-09-27T09:11:35;10.60;99.90
42907;DHT22;28552;51.146;6.576;2022-09-27T09:15:15;10.60;99.90
42907;DHT22;28552;51.146;6.576;2022-09-27T09:18:29;10.60;99.90
42907;DHT22;28552;51.146;6.576;2022-09-27T09:21:53;10.70;99.90
42907;DHT22;28552;51.146;6.576;2022-09-27T09:25:16;10.80;99.90
42907;DHT22;28552;51.146;6.576;2022-09-27T09:34:46;10.90;99.90
42907;DHT22;28552;51.146;6.576;2022-09-27T09:37:53;10.90;99.90
42907;DHT22;28552;51.146;6.576;2022-09-27T09:41:02;11.00;99.90
42907;DHT22;28552;51.146;6.576;2022-09-27T09:44:11;11.00;99.90
42907;DHT22;28552;51.146;6.576;2022-09-27T09:47:30;11.00;99.90
42907;DHT22;28552;51.146;6.576;2022-09-27T09:53:46;11.10;99.90
42907;DHT22;28552;51.146;6.576;2022-09-27T10:00:15;11.00;99.90
42907;DHT22;28552;51.146;6.576;2022-09-27T10:03:18;10.90;99.90
42907;DHT22;28552;51.146;6.576;2022-09-27T10:06:19;10.90;99.90
42907;DHT22;28552;51.146;6.576;2022-09-27T10:09:24;10.90;99.90
42907;DHT22;28552;51.146;6.576;2022-09-27T10:12:28;10.90;99.90
42907;DHT22;28552;51.146;6.576;2022-09-27T10:15:34;10.90;99.90
42907;DHT22;28552;51.146;6.576;2022-09-27T10:18:37;10.90;99.90
42907;DHT22;28552;51.146;6.576;2022-09-27T10:21:41;10.90;99.90
42907;DHT22;28552;51.146;6.576;2022-09-27T10:24:54;10.90;99.90
42907;DHT22;28552;51.146;6.576;2022-09-27T10:27:55;10.90;99.90
42907;DHT22;28552;51.146;6.576;2022-09-27T10:30:58;10.90;99.90
42907;DHT22;28552;51.146;6.576;2022-09-27T10:34:04;10.80;99.90
42907;DHT22;28552;51.146;6.576;2022-09-27T10:37:21;10.80;99.90
42907;DHT22;28552;51.146;6.576;2022-09-27T10:40:29;10.80;99.90
42907;DHT22;28552;51.146;6.576;2022-09-27T10:43:31;10.80;99.90
42907;DHT22;28552;51.146;6.576;2022-09-27T10:46:33;10.90;99.90
42907;DHT22;28552;51.146;6.576;2022-09-27T10:49:37;10.90;99.90
42907;DHT22;28552;51.146;6.576;2022-09-27T10:52:39;10.90;99.90
42907;DHT22;28552;51.146;6.576;2022-09-27T10:55:46;10.90;99.90
42907;DHT22;28552;51.146;6.576;2022-09-27T10:58:47;10.90;99.90
42907;DHT22;28552;51.146;6.576;2022-09-27T11:01:47;10.90;99.90
42907;DHT22;28552;51.146;6.576;2022-09-27T11:08:31;11.00;99.90
42907;DHT22;28552;51.146;6.576;2022-09-27T11:11:32;11.10;99.90
42907;DHT22;28552;51.146;6.576;2022-09-27T11:14:33;11.10;99.90
42907;DHT22;28552;51.146;6.576;2022-09-27T11:17:52;11.20;99.90
42907;DHT22;28552;51.146;6.576;2022-09-27T11:30:41;11.70;99.90
42907;DHT22;28552;51.146;6.576;2022-09-27T11:34:04;11.80;99.90
42907;DHT22;28552;51.146;6.576;2022-09-27T11:40:24;11.90;99.90
42907;DHT22;28552;51.146;6.576;2022-09-27T11:53:49;11.80;99.90
42907;DHT22;28552;51.146;6.576;2022-09-27T11:57:01;11.80;99.90
42907;DHT22;28552;51.146;6.576;2022-09-27T12:03:44;11.80;99.90
42907;DHT22;28552;51.146;6.576;2022-09-27T12:07:11;11.70;99.90
42907;DHT22;28552;51.146;6.576;2022-09-27T12:10:16;11.50;99.90
42907;DHT22;28552;51.146;6.576;2022-09-27T12:13:27;11.40;99.90
42907;DHT22;28552;51.146;6.576;2022-09-27T12:16:30;11.30;99.90
42907;DHT22;28552;51.146;6.576;2022-09-27T12:19:34;11.20;99.90
42907;DHT22;28552;51.146;6.576;2022-09-27T12:22:43;11.10;99.90
42907;DHT22;28552;51.146;6.576;2022-09-27T12:25:45;11.00;99.90
42907;DHT22;28552;51.146;6.576;2022-09-27T12:28:54;11.00;99.90
42907;DHT22;28552;51.146;6.576;2022-09-27T12:32:14;10.80;99.90
42907;DHT22;28552;51.146;6.576;2022-09-27T12:35:17;10.60;99.90
42907;DHT22;28552;51.146;6.576;2022-09-27T12:41:40;10.00;99.90
42907;DHT22;28552;51.146;6.576;2022-09-27T12:44:42;9.90;99.90
42907;DHT22;28552;51.146;6.576;2022-09-27T12:48:01;9.90;99.90
42907;DHT22;28552;51.146;6.576;2022-09-27T12:51:09;9.90;99.90
42907;DHT22;28552;51.146;6.576;2022-09-27T12:57:34;10.10;99.90
42907;DHT22;28552;51.146;6.576;2022-09-27T13:00:51;10.10;99.90
42907;DHT22;28552;51.146;6.576;2022-09-27T13:10:39;10.30;99.90
42907;DHT22;28552;51.146;6.576;2022-09-27T13:13:45;10.40;99.90
42907;DHT22;28552;51.146;6.576;2022-09-27T13:16:48;10.50;99.90
42907;DHT22;28552;51.146;6.576;2022-09-27T13:19:55;10.50;99.90
42907;DHT22;28552;51.146;6.576;2022-09-27T13:29:35;10.80;99.90
42907;DHT22;28552;51.146;6.576;2022-09-27T13:32:35;10.80;99.90
42907;DHT22;28552;51.146;6.576;2022-09-27T13:35:37;10.80;99.90
42907;DHT22;28552;51.146;6.576;2022-09-27T13:38:38;10.80;99.90
42907;DHT22;28552;51.146;6.576;2022-09-27T13:41:54;10.80;99.90
42907;DHT22;28552;51.146;6.576;2022-09-27T13:45:19;10.80;99.90
42907;DHT22;28552;51.146;6.576;2022-09-27T13:48:29;10.80;99.90
42907;DHT22;28552;51.146;6.576;2022-09-27T13:51:42;10.80;99.90
42907;DHT22;28552;51.146;6.576;2022-09-27T13:54:59;10.90;99.90
42907;DHT22;28552;51.146;6.576;2022-09-27T13:58:04;11.00;99.90
42907;DHT22;28552;51.146;6.576;2022-09-27T14:04:34;11.10;99.90
42907;DHT22;28552;51.146;6.576;2022-09-27T14:07:42;11.10;99.90
42907;DHT22;28552;51.146;6.576;2022-09-27T14:10:43;11.10;99.90
42907;DHT22;28552;51.146;6.576;2022-09-27T14:13:45;11.10;99.90
42907;DHT22;28552;51.146;6.576;2022-09-27T14:16:48;11.00;99.90
42907;DHT22;28552;51.146;6.576;2022-09-27T14:19:53;11.00;99.90
42907;DHT22;28552;51.146;6.576;2022-09-27T14:22:55;11.00;99.90
42907;DHT22;28552;51.146;6.576;2022-09-27T14:25:55;11.00;99.90
42907;DHT22;28552;51.146;6.576;2022-09-27T14:28:58;11.00;99.90
42907;DHT22;28552;51.146;6.576;2022-09-27T14:32:04;11.00;99.90
42907;DHT22;28552;51.146;6.576;2022-09-27T14:35:11;11.00;99.90
42907;DHT22;28552;51.146;6.576;2022-09-27T14:38:30;11.00;99.90
42907;DHT22;28552;51.146;6.576;2022-09-27T14:41:36;11.00;99.90
42907;DHT22;28552;51.146;6.576;2022-09-27T14:44:43;11.10;99.90
42907;DHT22;28552;51.146;6.576;2022-09-27T14:47:46;11.10;99.90
42907;DHT22;28552;51.146;6.576;2022-09-27T14:51:18;11.10;99.90
42907;DHT22;28552;51.146;6.576;2022-09-27T14:54:23;11.10;99.90
42907;DHT22;28552;51.146;6.576;2022-09-27T14:57:28;11.20;99.90
42907;DHT22;28552;51.146;6.576;2022-09-27T15:00:33;11.20;99.90
42907;DHT22;28552;51.146;6.576;2022-09-27T15:03:36;11.20;99.90
42907;DHT22;28552;51.146;6.576;2022-09-27T15:06:39;11.20;99.90
42907;DHT22;28552;51.146;6.576;2022-09-27T15:09:40;11.20;99.90
42907;DHT22;28552;51.146;6.576;2022-09-27T15:12:44;11.20;99.90
42907;DHT22;28552;51.146;6.576;2022-09-27T15:15:47;11.20;99.90
42907;DHT22;28552;51.146;6.576;2022-09-27T15:18:58;11.10;99.90
42907;DHT22;28552;51.146;6.576;2022-09-27T15:28:35;11.10;99.90
42907;DHT22;28552;51.146;6.576;2022-09-27T15:31:37;11.00;99.90
42907;DHT22;28552;51.146;6.576;2022-09-27T15:34:39;11.00;99.90
42907;DHT22;28552;51.146;6.576;2022-09-27T15:37:40;11.00;99.90
42907;DHT22;28552;51.146;6.576;2022-09-27T15:40:59;10.90;99.90
42907;DHT22;28552;51.146;6.576;2022-09-27T15:44:33;10.80;99.90
42907;DHT22;28552;51.146;6.576;2022-09-27T15:50:38;10.60;99.90
42907;DHT22;28552;51.146;6.576;2022-09-27T15:53:41;10.60;99.90
42907;DHT22;28552;51.146;6.576;2022-09-27T15:56:42;10.50;99.90
42907;DHT22;28552;51.146;6.576;2022-09-27T15:59:43;10.50;99.90
42907;DHT22;28552;51.146;6.576;2022-09-27T16:02:45;10.40;99.90
42907;DHT22;28552;51.146;6.576;2022-09-27T16:05:45;10.40;99.90
42907;DHT22;28552;51.146;6.576;2022-09-27T16:08:46;10.40;99.90
42907;DHT22;28552;51.146;6.576;2022-09-27T16:11:49;10.40;99.90
42907;DHT22;28552;51.146;6.576;2022-09-27T16:14:50;10.40;99.90
42907;DHT22;28552;51.146;6.576;2022-09-27T16:17:50;10.40;99.90
42907;DHT22;28552;51.146;6.576;2022-09-27T16:20:51;10.40;99.90
42907;DHT22;28552;51.146;6.576;2022-09-27T16:23:51;10.30;99.90
42907;DHT22;28552;51.146;6.576;2022-09-27T16:26:52;10.30;99.90
42907;DHT22;28552;51.146;6.576;2022-09-27T16:29:54;10.20;99.90
42907;DHT22;28552;51.146;6.576;2022-09-27T16:32:55;10.20;99.90
42907;DHT22;28552;51.146;6.576;2022-09-27T16:35:59;10.10;99.90
42907;DHT22;28552;51.146;6.576;2022-09-27T16:39:01;10.00;99.90
42907;DHT22;28552;51.146;6.576;2022-09-27T16:42:04;10.00;99.90
42907;DHT22;28552;51.146;6.576;2022-09-27T16:45:07;10.00;99.90
42907;DHT22;28552;51.146;6.576;2022-09-27T16:48:07;9.90;99.90
42907;DHT22;28552;51.146;6.576;2022-09-27T16:51:14;9.90;99.90
42907;DHT22;28552;51.146;6.576;2022-09-27T16:54:30;9.90;99.90
42907;DHT22;28552;51.146;6.576;2022-09-27T16:57:31;9.80;99.90
42907;DHT22;28552;51.146;6.576;2022-09-27T17:00:33;9.80;99.90
42907;DHT22;28552;51.146;6.576;2022-09-27T17:03:34;9.80;99.90
42907;DHT22;28552;51.146;6.576;2022-09-27T17:06:34;9.80;99.90
42907;DHT22;28552;51.146;6.576;2022-09-27T17:09:35;9.80;99.90
42907;DHT22;28552;51.146;6.576;2022-09-27T17:12:35;9.80;99.90
42907;DHT22;28552;51.146;6.576;2022-09-27T17:15:36;9.80;99.90
42907;DHT22;28552;51.146;6.576;2022-09-27T17:18:38;9.70;99.90
42907;DHT22;28552;51.146;6.576;2022-09-27T17:21:39;9.80;99.90
42907;DHT22;28552;51.146;6.576;2022-09-27T17:24:40;9.80;99.90
42907;DHT22;28552;51.146;6.576;2022-09-27T17:27:40;9.80;99.90
42907;DHT22;28552;51.146;6.576;2022-09-27T17:30:41;9.80;99.90
42907;DHT22;28552;51.146;6.576;2022-09-27T17:33:46;9.70;99.90
42907;DHT22;28552;51.146;6.576;2022-09-27T17:36:47;9.70;99.90
42907;DHT22;28552;51.146;6.576;2022-09-27T17:39:49;9.70;99.90
42907;DHT22;28552;51.146;6.576;2022-09-27T17:42:50;9.80;99.90
42907;DHT22;28552;51.146;6.576;2022-09-27T17:45:50;9.80;99.90
42907;DHT22;28552;51.146;6.576;2022-09-27T17:48:51;9.80;99.90
42907;DHT22;28552;51.146;6.576;2022-09-27T17:52:07;9.80;99.90
42907;DHT22;28552;51.146;6.576;2022-09-27T17:55:08;9.80;99.90
42907;DHT22;28552;51.146;6.576;2022-09-27T17:58:08;9.90;99.90
42907;DHT22;28552;51.146;6.576;2022-09-27T18:01:09;9.80;99.90
42907;DHT22;28552;51.146;6.576;2022-09-27T18:04:11;9.90;99.90
42907;DHT22;28552;51.146;6.576;2022-09-27T18:07:12;9.90;99.90
42907;DHT22;28552;51.146;6.576;2022-09-27T18:10:14;9.90;99.90
42907;DHT22;28552;51.146;6.576;2022-09-27T18:13:16;9.90;99.90
42907;DHT22;28552;51.146;6.576;2022-09-27T18:16:17;9.90;99.90
42907;DHT22;28552;51.146;6.576;2022-09-27T18:19:18;9.90;99.90
42907;DHT22;28552;51.146;6.576;2022-09-27T18:22:19;9.90;99.90
42907;DHT22;28552;51.146;6.576;2022-09-27T18:25:20;9.90;99.90
42907;DHT22;28552;51.146;6.576;2022-09-27T18:28:25;9.90;99.90
42907;DHT22;28552;51.146;6.576;2022-09-27T18:31:26;9.90;99.90
42907;DHT22;28552;51.146;6.576;2022-09-27T18:34:27;9.90;99.90
42907;DHT22;28552;51.146;6.576;2022-09-27T18:37:29;9.90;99.90
42907;DHT22;28552;51.146;6.576;2022-09-27T18:40:29;9.90;99.90
42907;DHT22;28552;51.146;6.576;2022-09-27T18:43:30;9.90;99.90
42907;DHT22;28552;51.146;6.576;2022-09-27T18:46:33;9.90;99.90
42907;DHT22;28552;51.146;6.576;2022-09-27T18:49:34;9.90;99.90
42907;DHT22;28552;51.146;6.576;2022-09-27T18:52:34;9.90;99.90
42907;DHT22;28552;51.146;6.576;2022-09-27T18:55:36;10.00;99.90
42907;DHT22;28552;51.146;6.576;2022-09-27T18:58:38;9.90;99.90
42907;DHT22;28552;51.146;6.576;2022-09-27T19:01:41;9.90;99.90
42907;DHT22;28552;51.146;6.576;2022-09-27T19:04:44;9.90;99.90
42907;DHT22;28552;51.146;6.576;2022-09-27T19:07:44;9.90;99.90
42907;DHT22;28552;51.146;6.576;2022-09-27T19:10:45;9.90;99.90
42907;DHT22;28552;51.146;6.576;2022-09-27T19:13:49;9.90;99.90
42907;DHT22;28552;51.146;6.576;2022-09-27T19:16:50;9.90;99.90
42907;DHT22;28552;51.146;6.576;2022-09-27T19:19:51;9.90;99.90
42907;DHT22;28552;51.146;6.576;2022-09-27T19:22:51;9.90;99.90
42907;DHT22;28552;51.146;6.576;2022-09-27T19:25:52;9.90;99.90
42907;DHT22;28552;51.146;6.576;2022-09-27T19:28:53;9.90;99.90
42907;DHT22;28552;51.146;6.576;2022-09-27T19:31:53;9.90;99.90
42907;DHT22;28552;51.146;6.576;2022-09-27T19:34:54;9.90;99.90
42907;DHT22;28552;51.146;6.576;2022-09-27T19:37:56;9.80;99.90
42907;DHT22;28552;51.146;6.576;2022-09-27T19:40:57;9.90;99.90
42907;DHT22;28552;51.146;6.576;2022-09-27T19:43:58;9.80;99.90
42907;DHT22;28552;51.146;6.576;2022-09-27T19:46:59;9.80;99.90
42907;DHT22;28552;51.146;6.576;2022-09-27T19:49:59;9.80;99.90
42907;DHT22;28552;51.146;6.576;2022-09-27T19:53:00;9.80;99.90
42907;DHT22;28552;51.146;6.576;2022-09-27T19:56:03;9.70;99.90
42907;DHT22;28552;51.146;6.576;2022-09-27T19:59:04;9.70;99.90
42907;DHT22;28552;51.146;6.576;2022-09-27T20:02:04;9.70;99.90
42907;DHT22;28552;51.146;6.576;2022-09-27T20:05:06;9.70;99.90
42907;DHT22;28552;51.146;6.576;2022-09-27T20:08:06;9.70;99.90
42907;DHT22;28552;51.146;6.576;2022-09-27T20:11:11;9.70;99.90
42907;DHT22;28552;51.146;6.576;2022-09-27T20:14:12;9.70;99.90
42907;DHT22;28552;51.146;6.576;2022-09-27T20:17:13;9.70;99.90
42907;DHT22;28552;51.146;6.576;2022-09-27T20:20:13;9.70;99.90
42907;DHT22;28552;51.146;6.576;2022-09-27T20:23:17;9.70;99.90
42907;DHT22;28552;51.146;6.576;2022-09-27T20:26:21;9.70;99.90
42907;DHT22;28552;51.146;6.576;2022-09-27T20:29:22;9.70;99.90
42907;DHT22;28552;51.146;6.576;2022-09-27T20:32:22;9.60;99.90
42907;DHT22;28552;51.146;6.576;2022-09-27T20:35:23;9.60;99.90
42907;DHT22;28552;51.146;6.576;2022-09-27T20:38:25;9.60;99.90
42907;DHT22;28552;51.146;6.576;2022-09-27T20:41:30;9.60;99.90
42907;DHT22;28552;51.146;6.576;2022-09-27T20:44:30;9.50;99.90
42907;DHT22;28552;51.146;6.576;2022-09-27T20:47:34;9.50;99.90
42907;DHT22;28552;51.146;6.576;2022-09-27T20:50:35;9.50;99.90
42907;DHT22;28552;51.146;6.576;2022-09-27T20:53:37;9.50;99.90
42907;DHT22;28552;51.146;6.576;2022-09-27T20:56:40;9.40;99.90
42907;DHT22;28552;51.146;6.576;2022-09-27T20:59:41;9.40;99.90
42907;DHT22;28552;51.146;6.576;2022-09-27T21:02:41;9.40;99.90
42907;DHT22;28552;51.146;6.576;2022-09-27T21:05:43;9.30;99.90
42907;DHT22;28552;51.146;6.576;2022-09-27T21:08:53;9.30;99.90
42907;DHT22;28552;51.146;6.576;2022-09-27T21:11:54;9.20;99.90
42907;DHT22;28552;51.146;6.576;2022-09-27T21:14:54;9.20;99.90
42907;DHT22;28552;51.146;6.576;2022-09-27T21:17:55;9.10;99.90
42907;DHT22;28552;51.146;6.576;2022-09-27T21:20:58;9.10;99.90
42907;DHT22;28552;51.146;6.576;2022-09-27T21:24:00;9.00;99.90
42907;DHT22;28552;51.146;6.576;2022-09-27T21:30:10;9.00;99.90
42907;DHT22;28552;51.146;6.576;2022-09-27T21:33:10;9.00;99.90
42907;DHT22;28552;51.146;6.576;2022-09-27T21:36:11;8.90;99.90
42907;DHT22;28552;51.146;6.576;2022-09-27T21:39:12;8.90;99.90
42907;DHT22;28552;51.146;6.576;2022-09-27T21:42:15;8.90;99.90
42907;DHT22;28552;51.146;6.576;2022-09-27T21:45:16;9.00;99.90